sensor_id;sensor_type;location;lat;lon;timestamp;pressure;altitude;pressure_sealevel;temperature;humidity
39613;BME280;25303;48.896;13.342;2023-06-19T00:02:34;92735.19;;;19.66;42.74
39613;BME280;25303;48.896;13.342;2023-06-19T00:05:17;92734.84;;;19.63;42.80
39613;BME280;25303;48.896;13.342;2023-06-19T00:08:00;92728.59;;;19.64;42.48
39613;BME280;25303;48.896;13.342;2023-06-19T00:10:45;92722.56;;;19.63;42.45
39613;BME280;25303;48.896;13.342;2023-06-19T00:13:27;92716.56;;;19.63;42.41
39613;BME280;25303;48.896;13.342;2023-06-19T00:16:12;92720.78;;;19.64;42.54
39613;BME280;25303;48.896;13.342;2023-06-19T00:18:55;92722.56;;;19.63;42.80
39613;BME280;25303;48.896;13.342;2023-06-19T00:21:38;92715.31;;;19.65;42.44
39613;BME280;25303;48.896;13.342;2023-06-19T00:24:21;92722.38;;;19.65;42.19
39613;BME280;25303;48.896;13.342;2023-06-19T00:27:05;92723.38;;;19.64;42.32
39613;BME280;25303;48.896;13.342;2023-06-19T00:29:48;92720.78;;;19.64;42.37
39613;BME280;25303;48.896;13.342;2023-06-19T00:32:34;92720.53;;;19.65;42.13
39613;BME280;25303;48.896;13.342;2023-06-19T00:35:27;92724.97;;;19.65;42.50
39613;BME280;25303;48.896;13.342;2023-06-19T00:38:11;92726.78;;;19.64;42.62
39613;BME280;25303;48.896;13.342;2023-06-19T00:40:54;92728.19;;;19.67;42.14
39613;BME280;25303;48.896;13.342;2023-06-19T00:43:37;92725.56;;;19.67;42.03
39613;BME280;25303;48.896;13.342;2023-06-19T00:46:20;92725.75;;;19.65;42.53
39613;BME280;25303;48.896;13.342;2023-06-19T00:49:05;92724.16;;;19.64;42.33
39613;BME280;25303;48.896;13.342;2023-06-19T00:51:48;92719.38;;;19.61;42.29
39613;BME280;25303;48.896;13.342;2023-06-19T00:54:31;92737.09;;;19.59;42.48
39613;BME280;25303;48.896;13.342;2023-06-19T00:57:15;92724.66;;;19.54;42.53
39613;BME280;25303;48.896;13.342;2023-06-19T00:59:58;92724.28;;;19.51;42.31
39613;BME280;25303;48.896;13.342;2023-06-19T01:02:41;92727.75;;;19.44;42.31
39613;BME280;25303;48.896;13.342;2023-06-19T01:05:25;92728.78;;;19.43;42.60
39613;BME280;25303;48.896;13.342;2023-06-19T01:08:14;92722.75;;;19.43;42.05
39613;BME280;25303;48.896;13.342;2023-06-19T01:11:01;92718.19;;;19.38;42.51
39613;BME280;25303;48.896;13.342;2023-06-19T01:14:06;92726.00;;;19.38;42.20
39613;BME280;25303;48.896;13.342;2023-06-19T01:16:51;92722.03;;;19.36;42.01
39613;BME280;25303;48.896;13.342;2023-06-19T01:19:34;92719.19;;;19.37;42.02
39613;BME280;25303;48.896;13.342;2023-06-19T01:22:26;92722.81;;;19.36;42.25
39613;BME280;25303;48.896;13.342;2023-06-19T01:25:09;92722.81;;;19.36;42.27
39613;BME280;25303;48.896;13.342;2023-06-19T01:27:52;92715.19;;;19.35;42.01
39613;BME280;25303;48.896;13.342;2023-06-19T01:30:35;92714.38;;;19.34;42.08
39613;BME280;25303;48.896;13.342;2023-06-19T01:33:23;92713.22;;;19.30;42.25
39613;BME280;25303;48.896;13.342;2023-06-19T01:36:08;92713.00;;;19.32;41.90
39613;BME280;25303;48.896;13.342;2023-06-19T01:38:54;92710.81;;;19.28;42.08
39613;BME280;25303;48.896;13.342;2023-06-19T01:41:40;92716.03;;;19.28;42.29
39613;BME280;25303;48.896;13.342;2023-06-19T01:44:24;92716.84;;;19.29;42.23
39613;BME280;25303;48.896;13.342;2023-06-19T01:47:09;92711.84;;;19.27;42.14
39613;BME280;25303;48.896;13.342;2023-06-19T01:49:52;92724.09;;;19.27;41.99
39613;BME280;25303;48.896;13.342;2023-06-19T01:52:35;92713.84;;;19.25;42.03
39613;BME280;25303;48.896;13.342;2023-06-19T01:55:21;92710.53;;;19.18;41.87
39613;BME280;25303;48.896;13.342;2023-06-19T01:58:04;92715.34;;;19.15;42.19
39613;BME280;25303;48.896;13.342;2023-06-19T02:00:47;92716.56;;;19.12;41.80
39613;BME280;25303;48.896;13.342;2023-06-19T02:03:30;92711.00;;;19.08;42.22
39613;BME280;25303;48.896;13.342;2023-06-19T02:06:13;92702.34;;;19.08;41.86
39613;BME280;25303;48.896;13.342;2023-06-19T02:08:56;92709.16;;;19.09;42.09
39613;BME280;25303;48.896;13.342;2023-06-19T02:11:40;92710.16;;;19.08;42.00
39613;BME280;25303;48.896;13.342;2023-06-19T02:14:23;92713.00;;;19.06;41.91
39613;BME280;25303;48.896;13.342;2023-06-19T02:17:06;92710.59;;;19.05;42.23
39613;BME280;25303;48.896;13.342;2023-06-19T02:19:49;92710.59;;;19.05;41.71
39613;BME280;25303;48.896;13.342;2023-06-19T02:22:32;92718.66;;;19.03;42.25
39613;BME280;25303;48.896;13.342;2023-06-19T02:25:15;92718.06;;;19.01;41.71
39613;BME280;25303;48.896;13.342;2023-06-19T02:27:59;92721.06;;;18.98;41.76
39613;BME280;25303;48.896;13.342;2023-06-19T02:30:42;92717.09;;;18.95;41.96
39613;BME280;25303;48.896;13.342;2023-06-19T02:33:25;92730.53;;;18.92;41.98
39613;BME280;25303;48.896;13.342;2023-06-19T02:36:09;92727.13;;;18.92;42.08
39613;BME280;25303;48.896;13.342;2023-06-19T02:38:54;92731.13;;;18.94;42.16
39613;BME280;25303;48.896;13.342;2023-06-19T02:41:37;92732.94;;;18.94;41.78
39613;BME280;25303;48.896;13.342;2023-06-19T02:44:21;92728.72;;;18.93;41.80
39613;BME280;25303;48.896;13.342;2023-06-19T02:47:05;92729.50;;;18.93;41.66
39613;BME280;25303;48.896;13.342;2023-06-19T02:49:48;92721.69;;;18.93;41.62
39613;BME280;25303;48.896;13.342;2023-06-19T02:52:31;92723.50;;;18.93;41.61
39613;BME280;25303;48.896;13.342;2023-06-19T02:55:14;92730.94;;;18.89;41.58
39613;BME280;25303;48.896;13.342;2023-06-19T02:57:57;92732.94;;;18.87;41.58
39613;BME280;25303;48.896;13.342;2023-06-19T03:00:41;92736.16;;;18.89;41.80
39613;BME280;25303;48.896;13.342;2023-06-19T03:03:24;92736.97;;;18.90;41.86
39613;BME280;25303;48.896;13.342;2023-06-19T03:06:08;92737.16;;;18.88;41.87
39613;BME280;25303;48.896;13.342;2023-06-19T03:08:51;92732.16;;;18.87;41.52
39613;BME280;25303;48.896;13.342;2023-06-19T03:11:35;92734.94;;;18.92;41.47
39613;BME280;25303;48.896;13.342;2023-06-19T03:14:18;92745.97;;;18.94;41.47
39613;BME280;25303;48.896;13.342;2023-06-19T03:17:03;92739.34;;;18.98;41.74
39613;BME280;25303;48.896;13.342;2023-06-19T03:19:46;92740.75;;;19.01;41.74
39613;BME280;25303;48.896;13.342;2023-06-19T03:22:30;92744.72;;;19.03;41.66
39613;BME280;25303;48.896;13.342;2023-06-19T03:25:13;92738.28;;;19.06;41.29
39613;BME280;25303;48.896;13.342;2023-06-19T03:27:56;92743.91;;;19.09;41.51
39613;BME280;25303;48.896;13.342;2023-06-19T03:30:40;92739.84;;;19.13;41.36
39613;BME280;25303;48.896;13.342;2023-06-19T03:33:24;92743.25;;;19.14;41.27
39613;BME280;25303;48.896;13.342;2023-06-19T03:36:08;92739.22;;;19.18;41.13
39613;BME280;25303;48.896;13.342;2023-06-19T03:39:09;92743.22;;;19.21;41.08
39613;BME280;25303;48.896;13.342;2023-06-19T03:41:53;92739.38;;;19.23;41.23
39613;BME280;25303;48.896;13.342;2023-06-19T03:44:35;92746.19;;;19.24;41.14
39613;BME280;25303;48.896;13.342;2023-06-19T03:47:18;92752.59;;;19.28;41.21
39613;BME280;25303;48.896;13.342;2023-06-19T03:50:04;92749.56;;;19.32;41.16
39613;BME280;25303;48.896;13.342;2023-06-19T03:53:03;92746.94;;;19.32;40.68
39613;BME280;25303;48.896;13.342;2023-06-19T03:55:46;92749.34;;;19.33;41.08
39613;BME280;25303;48.896;13.342;2023-06-19T03:58:29;92752.53;;;19.35;40.91
39613;BME280;25303;48.896;13.342;2023-06-19T04:01:12;92754.72;;;19.38;40.74
39613;BME280;25303;48.896;13.342;2023-06-19T04:03:55;92755.31;;;19.40;40.44
39613;BME280;25303;48.896;13.342;2023-06-19T04:06:39;92753.28;;;19.42;40.51
39613;BME280;25303;48.896;13.342;2023-06-19T04:09:22;92756.28;;;19.46;40.42
39613;BME280;25303;48.896;13.342;2023-06-19T04:12:05;92756.28;;;19.46;40.55
39613;BME280;25303;48.896;13.342;2023-06-19T04:14:48;92762.06;;;19.48;40.41
39613;BME280;25303;48.896;13.342;2023-06-19T04:17:31;92766.47;;;19.48;40.29
39613;BME280;25303;48.896;13.342;2023-06-19T04:20:14;92765.47;;;19.49;40.48
39613;BME280;25303;48.896;13.342;2023-06-19T04:23:02;92775.91;;;19.49;40.59
39613;BME280;25303;48.896;13.342;2023-06-19T04:25:44;92782.75;;;19.50;40.69
39613;BME280;25303;48.896;13.342;2023-06-19T04:28:27;92791.16;;;19.52;40.53
39613;BME280;25303;48.896;13.342;2023-06-19T04:31:10;92797.19;;;19.52;40.68
39613;BME280;25303;48.896;13.342;2023-06-19T04:33:54;92800.38;;;19.54;40.72
39613;BME280;25303;48.896;13.342;2023-06-19T04:36:37;92804.16;;;19.58;40.87
39613;BME280;25303;48.896;13.342;2023-06-19T04:39:22;92794.09;;;19.62;40.33
39613;BME280;25303;48.896;13.342;2023-06-19T04:42:05;92803.91;;;19.67;40.83
39613;BME280;25303;48.896;13.342;2023-06-19T04:44:49;92809.72;;;19.69;40.96
39613;BME280;25303;48.896;13.342;2023-06-19T04:47:32;92813.72;;;19.71;41.22
39613;BME280;25303;48.896;13.342;2023-06-19T04:50:34;92815.50;;;19.71;41.01
39613;BME280;25303;48.896;13.342;2023-06-19T04:53:17;92811.75;;;19.67;41.17
39613;BME280;25303;48.896;13.342;2023-06-19T04:56:01;92801.72;;;19.64;41.25
39613;BME280;25303;48.896;13.342;2023-06-19T04:58:44;92803.53;;;19.63;41.05
39613;BME280;25303;48.896;13.342;2023-06-19T05:01:28;92807.97;;;19.63;41.24
39613;BME280;25303;48.896;13.342;2023-06-19T05:04:12;92807.38;;;19.61;40.94
39613;BME280;25303;48.896;13.342;2023-06-19T05:06:55;92822.03;;;19.62;41.63
39613;BME280;25303;48.896;13.342;2023-06-19T05:09:38;92832.25;;;19.63;41.30
39613;BME280;25303;48.896;13.342;2023-06-19T05:12:22;92835.09;;;19.62;41.55
39613;BME280;25303;48.896;13.342;2023-06-19T05:15:06;92833.06;;;19.64;41.17
39613;BME280;25303;48.896;13.342;2023-06-19T05:17:49;92826.66;;;19.59;41.25
39613;BME280;25303;48.896;13.342;2023-06-19T05:20:33;92825.66;;;19.61;40.89
39613;BME280;25303;48.896;13.342;2023-06-19T05:23:15;92834.13;;;19.56;41.40
39613;BME280;25303;48.896;13.342;2023-06-19T05:25:58;92838.53;;;19.55;41.60
39613;BME280;25303;48.896;13.342;2023-06-19T05:28:43;92828.91;;;19.56;41.52
39613;BME280;25303;48.896;13.342;2023-06-19T05:31:26;92827.06;;;19.56;41.61
39613;BME280;25303;48.896;13.342;2023-06-19T05:34:09;92829.50;;;19.58;41.59
39613;BME280;25303;48.896;13.342;2023-06-19T05:36:52;92831.88;;;19.59;41.03
39613;BME280;25303;48.896;13.342;2023-06-19T05:39:34;92828.03;;;19.62;40.86
39613;BME280;25303;48.896;13.342;2023-06-19T05:42:17;92834.66;;;19.65;41.12
39613;BME280;25303;48.896;13.342;2023-06-19T05:45:02;92839.25;;;19.69;40.82
39613;BME280;25303;48.896;13.342;2023-06-19T05:47:45;92837.41;;;19.70;40.08
39613;BME280;25303;48.896;13.342;2023-06-19T05:50:28;92845.66;;;19.73;40.35
39613;BME280;25303;48.896;13.342;2023-06-19T05:53:13;92843.03;;;19.73;40.37
39613;BME280;25303;48.896;13.342;2023-06-19T05:55:56;92854.25;;;19.74;40.86
39613;BME280;25303;48.896;13.342;2023-06-19T05:58:40;92853.84;;;19.77;40.61
39613;BME280;25303;48.896;13.342;2023-06-19T06:01:24;92859.44;;;19.81;40.97
39613;BME280;25303;48.896;13.342;2023-06-19T06:04:09;92860.84;;;19.83;41.23
39613;BME280;25303;48.896;13.342;2023-06-19T06:06:52;92862.84;;;19.88;41.49
39613;BME280;25303;48.896;13.342;2023-06-19T06:09:36;92867.66;;;19.91;41.17
39613;BME280;25303;48.896;13.342;2023-06-19T06:12:19;92865.03;;;19.91;41.58
39613;BME280;25303;48.896;13.342;2023-06-19T06:15:02;92862.41;;;19.91;41.87
39613;BME280;25303;48.896;13.342;2023-06-19T06:17:46;92868.00;;;19.95;41.83
39613;BME280;25303;48.896;13.342;2023-06-19T06:20:29;92874.41;;;19.99;41.37
39613;BME280;25303;48.896;13.342;2023-06-19T06:23:12;92871.94;;;20.04;40.46
39613;BME280;25303;48.896;13.342;2023-06-19T06:25:56;92875.72;;;20.08;40.68
39613;BME280;25303;48.896;13.342;2023-06-19T06:28:43;92878.34;;;20.08;40.88
39613;BME280;25303;48.896;13.342;2023-06-19T06:31:27;92885.59;;;20.06;41.15
39613;BME280;25303;48.896;13.342;2023-06-19T06:34:11;92891.03;;;20.04;41.81
39613;BME280;25303;48.896;13.342;2023-06-19T06:36:54;92903.28;;;20.04;41.61
39613;BME280;25303;48.896;13.342;2023-06-19T06:39:47;92913.97;;;20.02;42.30
39613;BME280;25303;48.896;13.342;2023-06-19T06:42:30;92921.88;;;19.96;42.89
39613;BME280;25303;48.896;13.342;2023-06-19T06:45:13;92912.69;;;19.80;43.96
39613;BME280;25303;48.896;13.342;2023-06-19T06:47:56;92910.22;;;19.59;45.26
39613;BME280;25303;48.896;13.342;2023-06-19T06:50:40;92916.31;;;19.47;45.77
39613;BME280;25303;48.896;13.342;2023-06-19T06:53:23;92913.81;;;19.26;49.03
39613;BME280;25303;48.896;13.342;2023-06-19T06:56:06;92922.50;;;19.13;47.42
39613;BME280;25303;48.896;13.342;2023-06-19T06:58:49;92918.31;;;18.92;47.54
39613;BME280;25303;48.896;13.342;2023-06-19T07:01:32;92915.38;;;18.75;47.52
39613;BME280;25303;48.896;13.342;2023-06-19T07:04:15;92911.63;;;18.58;48.81
39613;BME280;25303;48.896;13.342;2023-06-19T07:07:00;92904.41;;;18.46;49.53
39613;BME280;25303;48.896;13.342;2023-06-19T07:09:46;92896.81;;;18.38;49.87
39613;BME280;25303;48.896;13.342;2023-06-19T07:12:29;92902.44;;;18.35;49.63
39613;BME280;25303;48.896;13.342;2023-06-19T07:15:12;92917.47;;;18.33;50.88
39613;BME280;25303;48.896;13.342;2023-06-19T07:17:56;92927.31;;;18.04;52.57
39613;BME280;25303;48.896;13.342;2023-06-19T07:20:39;92918.25;;;17.86;52.79
39613;BME280;25303;48.896;13.342;2023-06-19T07:23:24;92911.25;;;17.87;53.04
39613;BME280;25303;48.896;13.342;2023-06-19T07:26:07;92909.22;;;17.89;53.49
39613;BME280;25303;48.896;13.342;2023-06-19T07:28:50;92898.22;;;17.94;53.21
39613;BME280;25303;48.896;13.342;2023-06-19T07:31:33;92900.47;;;18.03;52.91
39613;BME280;25303;48.896;13.342;2023-06-19T07:34:16;92903.47;;;18.07;53.86
39613;BME280;25303;48.896;13.342;2023-06-19T07:36:59;92891.22;;;18.14;54.10
39613;BME280;25303;48.896;13.342;2023-06-19T07:39:43;92903.06;;;18.24;53.77
39613;BME280;25303;48.896;13.342;2023-06-19T07:42:26;92896.44;;;18.34;53.16
39613;BME280;25303;48.896;13.342;2023-06-19T07:45:10;92897.19;;;18.42;52.63
39613;BME280;25303;48.896;13.342;2023-06-19T07:47:54;92903.41;;;18.47;52.91
39613;BME280;25303;48.896;13.342;2023-06-19T07:50:38;92896.97;;;18.57;52.36
39613;BME280;25303;48.896;13.342;2023-06-19T07:53:21;92897.94;;;18.69;52.40
39613;BME280;25303;48.896;13.342;2023-06-19T07:56:05;92901.13;;;18.78;52.87
39613;BME280;25303;48.896;13.342;2023-06-19T07:58:50;92896.09;;;18.83;53.59
39613;BME280;25303;48.896;13.342;2023-06-19T08:01:33;92899.47;;;18.90;53.39
39613;BME280;25303;48.896;13.342;2023-06-19T08:04:16;92900.28;;;18.97;54.10
39613;BME280;25303;48.896;13.342;2023-06-19T08:06:59;92895.03;;;19.04;54.05
39613;BME280;25303;48.896;13.342;2023-06-19T08:09:42;92905.81;;;19.15;53.92
39613;BME280;25303;48.896;13.342;2023-06-19T08:12:26;92909.59;;;19.25;54.62
39613;BME280;25303;48.896;13.342;2023-06-19T08:15:09;92911.94;;;19.40;54.24
39613;BME280;25303;48.896;13.342;2023-06-19T08:17:52;92910.03;;;19.54;54.07
39613;BME280;25303;48.896;13.342;2023-06-19T08:20:35;92918.00;;;19.66;53.96
39613;BME280;25303;48.896;13.342;2023-06-19T08:23:18;92912.75;;;19.73;54.17
39613;BME280;25303;48.896;13.342;2023-06-19T08:26:01;92908.47;;;19.79;53.97
39613;BME280;25303;48.896;13.342;2023-06-19T08:28:46;92911.84;;;19.86;53.70
39613;BME280;25303;48.896;13.342;2023-06-19T08:31:29;92921.63;;;19.97;54.12
39613;BME280;25303;48.896;13.342;2023-06-19T08:34:12;92920.75;;;20.10;53.12
39613;BME280;25303;48.896;13.342;2023-06-19T08:36:55;92918.25;;;20.22;53.16
39613;BME280;25303;48.896;13.342;2023-06-19T08:39:38;92916.75;;;20.33;53.35
39613;BME280;25303;48.896;13.342;2023-06-19T08:42:21;92917.47;;;20.40;53.63
39613;BME280;25303;48.896;13.342;2023-06-19T08:45:07;92908.97;;;20.45;52.93
39613;BME280;25303;48.896;13.342;2023-06-19T08:47:58;92912.56;;;20.51;52.43
39613;BME280;25303;48.896;13.342;2023-06-19T08:50:41;92915.47;;;20.61;52.37
39613;BME280;25303;48.896;13.342;2023-06-19T08:53:24;92907.72;;;20.73;52.22
39613;BME280;25303;48.896;13.342;2023-06-19T08:56:07;92912.84;;;20.86;52.28
39613;BME280;25303;48.896;13.342;2023-06-19T08:58:49;92915.44;;;21.05;52.41
39613;BME280;25303;48.896;13.342;2023-06-19T09:04:16;92919.81;;;21.42;51.84
39613;BME280;25303;48.896;13.342;2023-06-19T09:07:02;92912.59;;;21.55;52.45
39613;BME280;25303;48.896;13.342;2023-06-19T09:09:56;92909.84;;;21.81;51.78
39613;BME280;25303;48.896;13.342;2023-06-19T09:12:41;92920.84;;;22.13;51.36
39613;BME280;25303;48.896;13.342;2023-06-19T09:15:30;92913.59;;;22.39;50.05
39613;BME280;25303;48.896;13.342;2023-06-19T09:18:16;92906.41;;;22.58;47.74
39613;BME280;25303;48.896;13.342;2023-06-19T09:20:59;92908.22;;;22.82;47.68
39613;BME280;25303;48.896;13.342;2023-06-19T09:23:42;92911.78;;;23.28;46.12
39613;BME280;25303;48.896;13.342;2023-06-19T09:26:26;92909.56;;;23.49;46.08
39613;BME280;25303;48.896;13.342;2023-06-19T09:29:11;92909.38;;;23.67;45.42
39613;BME280;25303;48.896;13.342;2023-06-19T09:31:58;92915.75;;;23.89;44.94
39613;BME280;25303;48.896;13.342;2023-06-19T09:34:42;92913.97;;;24.06;44.74
39613;BME280;25303;48.896;13.342;2023-06-19T09:37:27;92906.63;;;24.25;44.71
39613;BME280;25303;48.896;13.342;2023-06-19T09:40:10;92911.09;;;24.42;44.38
39613;BME280;25303;48.896;13.342;2023-06-19T09:42:54;92908.16;;;24.55;44.13
39613;BME280;25303;48.896;13.342;2023-06-19T09:45:43;92914.34;;;24.66;44.15
39613;BME280;25303;48.896;13.342;2023-06-19T09:48:27;92911.22;;;24.69;44.01
39613;BME280;25303;48.896;13.342;2023-06-19T09:51:18;92905.97;;;24.69;43.92
39613;BME280;25303;48.896;13.342;2023-06-19T09:54:06;92901.75;;;24.85;44.53
39613;BME280;25303;48.896;13.342;2023-06-19T09:56:50;92903.22;;;24.98;43.00
39613;BME280;25303;48.896;13.342;2023-06-19T09:59:33;92902.13;;;25.16;43.59
39613;BME280;25303;48.896;13.342;2023-06-19T10:02:17;92896.94;;;25.49;43.14
39613;BME280;25303;48.896;13.342;2023-06-19T10:05:01;92906.72;;;25.76;43.00
39613;BME280;25303;48.896;13.342;2023-06-19T10:07:46;92903.97;;;25.93;42.33
39613;BME280;25303;48.896;13.342;2023-06-19T10:10:29;92902.34;;;26.14;41.12
39613;BME280;25303;48.896;13.342;2023-06-19T10:13:15;92907.84;;;26.45;41.17
39613;BME280;25303;48.896;13.342;2023-06-19T10:15:59;92910.41;;;26.78;39.93
39613;BME280;25303;48.896;13.342;2023-06-19T10:18:45;92909.53;;;27.05;39.73
39613;BME280;25303;48.896;13.342;2023-06-19T10:21:28;92910.72;;;27.35;39.30
39613;BME280;25303;48.896;13.342;2023-06-19T10:24:27;92917.16;;;27.54;38.93
39613;BME280;25303;48.896;13.342;2023-06-19T10:27:20;92911.00;;;27.43;36.86
39613;BME280;25303;48.896;13.342;2023-06-19T10:30:04;92908.31;;;27.28;36.19
39613;BME280;25303;48.896;13.342;2023-06-19T10:32:56;92901.94;;;27.24;36.25
39613;BME280;25303;48.896;13.342;2023-06-19T10:35:41;92905.16;;;27.36;35.57
39613;BME280;25303;48.896;13.342;2023-06-19T10:38:24;92908.72;;;27.63;35.77
39613;BME280;25303;48.896;13.342;2023-06-19T10:41:15;92904.28;;;27.94;33.91
39613;BME280;25303;48.896;13.342;2023-06-19T10:43:59;92911.16;;;27.95;34.14
39613;BME280;25303;48.896;13.342;2023-06-19T10:46:43;92903.50;;;28.14;34.24
39613;BME280;25303;48.896;13.342;2023-06-19T10:49:26;92909.34;;;28.32;33.77
39613;BME280;25303;48.896;13.342;2023-06-19T10:52:09;92899.25;;;28.70;34.61
39613;BME280;25303;48.896;13.342;2023-06-19T10:54:53;92903.97;;;28.99;33.12
39613;BME280;25303;48.896;13.342;2023-06-19T10:57:38;92899.38;;;29.20;33.23
39613;BME280;25303;48.896;13.342;2023-06-19T11:00:25;92905.16;;;29.38;31.22
39613;BME280;25303;48.896;13.342;2023-06-19T11:03:08;92909.66;;;29.43;32.90
39613;BME280;25303;48.896;13.342;2023-06-19T11:05:51;92908.50;;;29.64;33.16
39613;BME280;25303;48.896;13.342;2023-06-19T11:08:34;92909.13;;;29.91;32.85
39613;BME280;25303;48.896;13.342;2023-06-19T11:11:17;92909.09;;;29.96;32.57
39613;BME280;25303;48.896;13.342;2023-06-19T11:14:03;92907.31;;;29.86;32.24
39613;BME280;25303;48.896;13.342;2023-06-19T11:16:47;92905.19;;;29.83;31.66
39613;BME280;25303;48.896;13.342;2023-06-19T11:19:30;92907.38;;;29.70;31.75
39613;BME280;25303;48.896;13.342;2023-06-19T11:22:14;92902.47;;;29.48;32.46
39613;BME280;25303;48.896;13.342;2023-06-19T11:25:02;92911.25;;;29.38;32.70
39613;BME280;25303;48.896;13.342;2023-06-19T11:27:45;92913.69;;;29.24;32.31
39613;BME280;25303;48.896;13.342;2023-06-19T11:30:34;92904.47;;;29.06;32.56
39613;BME280;25303;48.896;13.342;2023-06-19T11:33:19;92907.97;;;28.91;32.95
39613;BME280;25303;48.896;13.342;2023-06-19T11:36:04;92901.63;;;28.61;32.52
39613;BME280;25303;48.896;13.342;2023-06-19T11:38:48;92900.06;;;28.45;33.42
39613;BME280;25303;48.896;13.342;2023-06-19T11:41:31;92913.56;;;28.33;33.19
39613;BME280;25303;48.896;13.342;2023-06-19T11:44:14;92914.63;;;28.16;33.42
39613;BME280;25303;48.896;13.342;2023-06-19T11:46:59;92917.22;;;27.96;33.55
39613;BME280;25303;48.896;13.342;2023-06-19T11:49:47;92912.69;;;27.81;34.21
39613;BME280;25303;48.896;13.342;2023-06-19T11:52:30;92908.47;;;27.74;34.78
39613;BME280;25303;48.896;13.342;2023-06-19T11:55:14;92910.31;;;27.74;34.67
39613;BME280;25303;48.896;13.342;2023-06-19T11:57:57;92908.75;;;27.78;34.32
39613;BME280;25303;48.896;13.342;2023-06-19T12:00:41;92908.75;;;27.78;34.65
39613;BME280;25303;48.896;13.342;2023-06-19T12:03:26;92901.34;;;27.70;34.05
39613;BME280;25303;48.896;13.342;2023-06-19T12:06:09;92897.09;;;27.79;34.27
39613;BME280;25303;48.896;13.342;2023-06-19T12:08:52;92901.88;;;27.93;33.99
39613;BME280;25303;48.896;13.342;2023-06-19T12:11:35;92894.72;;;27.98;34.11
39613;BME280;25303;48.896;13.342;2023-06-19T12:14:19;92899.28;;;28.13;34.35
39613;BME280;25303;48.896;13.342;2023-06-19T12:17:03;92901.38;;;28.22;33.91
39613;BME280;25303;48.896;13.342;2023-06-19T12:19:47;92901.38;;;28.53;33.45
39613;BME280;25303;48.896;13.342;2023-06-19T12:22:32;92893.66;;;28.87;32.91
39613;BME280;25303;48.896;13.342;2023-06-19T12:25:15;92893.84;;;29.06;33.00
39613;BME280;25303;48.896;13.342;2023-06-19T12:27:58;92894.38;;;29.08;31.80
39613;BME280;25303;48.896;13.342;2023-06-19T12:30:41;92896.78;;;29.00;31.98
39613;BME280;25303;48.896;13.342;2023-06-19T12:33:24;92894.69;;;28.96;31.96
39613;BME280;25303;48.896;13.342;2023-06-19T12:36:10;92889.06;;;29.08;31.56
39613;BME280;25303;48.896;13.342;2023-06-19T12:38:54;92890.66;;;29.09;31.71
39613;BME280;25303;48.896;13.342;2023-06-19T12:41:37;92884.00;;;29.17;31.92
39613;BME280;25303;48.896;13.342;2023-06-19T12:44:21;92871.47;;;29.38;31.74
39613;BME280;25303;48.896;13.342;2023-06-19T12:47:06;92877.41;;;29.70;31.38
39613;BME280;25303;48.896;13.342;2023-06-19T12:49:48;92878.59;;;29.98;30.90
39613;BME280;25303;48.896;13.342;2023-06-19T12:52:33;92877.22;;;30.01;30.85
39613;BME280;25303;48.896;13.342;2023-06-19T12:55:16;92874.59;;;29.96;28.94
39613;BME280;25303;48.896;13.342;2023-06-19T12:57:59;92873.28;;;29.93;30.31
39613;BME280;25303;48.896;13.342;2023-06-19T13:00:42;92872.75;;;29.91;30.19
39613;BME280;25303;48.896;13.342;2023-06-19T13:03:25;92870.72;;;29.83;30.61
39613;BME280;25303;48.896;13.342;2023-06-19T13:06:08;92877.09;;;29.82;30.79
39613;BME280;25303;48.896;13.342;2023-06-19T13:08:52;92871.78;;;29.82;30.45
39613;BME280;25303;48.896;13.342;2023-06-19T13:11:35;92871.88;;;29.66;30.24
39613;BME280;25303;48.896;13.342;2023-06-19T13:14:18;92870.13;;;29.46;30.55
39613;BME280;25303;48.896;13.342;2023-06-19T13:17:01;92870.41;;;29.39;30.61
39613;BME280;25303;48.896;13.342;2023-06-19T13:19:44;92867.28;;;29.27;30.29
39613;BME280;25303;48.896;13.342;2023-06-19T13:22:27;92864.38;;;29.18;31.02
39613;BME280;25303;48.896;13.342;2023-06-19T13:25:11;92864.41;;;29.13;30.48
39613;BME280;25303;48.896;13.342;2023-06-19T13:27:54;92872.16;;;28.99;30.98
39613;BME280;25303;48.896;13.342;2023-06-19T13:30:37;92859.75;;;28.89;30.69
39613;BME280;25303;48.896;13.342;2023-06-19T13:33:20;92869.28;;;28.80;31.03
39613;BME280;25303;48.896;13.342;2023-06-19T13:36:04;92868.25;;;28.65;31.13
39613;BME280;25303;48.896;13.342;2023-06-19T13:38:47;92866.44;;;28.50;30.79
39613;BME280;25303;48.896;13.342;2023-06-19T13:41:31;92866.47;;;28.35;30.91
39613;BME280;25303;48.896;13.342;2023-06-19T13:44:16;92863.03;;;28.24;31.40
39613;BME280;25303;48.896;13.342;2023-06-19T13:46:59;92865.41;;;28.15;32.12
39613;BME280;25303;48.896;13.342;2023-06-19T13:49:42;92864.06;;;28.08;32.61
39613;BME280;25303;48.896;13.342;2023-06-19T13:52:25;92869.63;;;28.01;31.86
39613;BME280;25303;48.896;13.342;2023-06-19T13:55:08;92858.50;;;27.94;32.70
39613;BME280;25303;48.896;13.342;2023-06-19T13:57:53;92858.50;;;27.83;32.43
39613;BME280;25303;48.896;13.342;2023-06-19T14:00:35;92864.31;;;27.70;32.14
39613;BME280;25303;48.896;13.342;2023-06-19T14:03:18;92853.97;;;27.58;32.30
39613;BME280;25303;48.896;13.342;2023-06-19T14:06:02;92859.00;;;27.54;32.51
39613;BME280;25303;48.896;13.342;2023-06-19T14:08:45;92852.91;;;27.54;32.33
39613;BME280;25303;48.896;13.342;2023-06-19T14:11:28;92849.22;;;27.60;32.52
39613;BME280;25303;48.896;13.342;2023-06-19T14:14:15;92849.47;;;27.64;33.21
39613;BME280;25303;48.896;13.342;2023-06-19T14:16:58;92844.44;;;27.67;33.30
39613;BME280;25303;48.896;13.342;2023-06-19T14:19:41;92834.13;;;27.66;33.16
39613;BME280;25303;48.896;13.342;2023-06-19T14:22:24;92837.31;;;27.63;33.29